Time;durP1;ratioP1;P1;durP2;ratioP2;P2;SDS_P1;SDS_P2;PMS_P1;PMS_P2;Temp;Humidity;BMP_temperature;BMP_pressure;BME280_temperature;BME280_humidity;BME280_pressure;Samples;Min_cycle;Max_cycle;Signal;HPM_P1;HPM_P2
2022/02/26 00:01:43;;;;;;;13.20;9.10;;;4.00;99.90;;;;;;5073236;28;20231;-69
2022/02/26 00:04:09;;;;;;;18.20;8.73;;;3.90;99.90;;;;;;5064072;28;20836;-67
2022/02/26 00:06:35;;;;;;;18.10;9.23;;;3.90;99.90;;;;;;5053483;28;20455;-67
2022/02/26 00:09:01;;;;;;;16.73;8.97;;;3.90;99.90;;;;;;5052429;28;20315;-68
2022/02/26 00:11:26;;;;;;;23.73;8.77;;;3.80;99.90;;;;;;5049570;28;20457;-69
2022/02/26 00:13:52;;;;;;;13.17;8.53;;;3.90;99.90;;;;;;5050138;28;20836;-69
2022/02/26 00:16:17;;;;;;;18.90;9.13;;;3.90;99.90;;;;;;5027537;28;20208;-68
2022/02/26 00:18:46;;;;;;;13.93;8.20;;;3.90;99.90;;;;;;5033719;28;20245;-69
2022/02/26 00:21:11;;;;;;;14.90;8.60;;;3.90;99.90;;;;;;5049145;28;20201;-69
2022/02/26 00:23:37;;;;;;;17.40;8.87;;;3.90;99.90;;;;;;5054776;28;20410;-68
2022/02/26 00:26:03;;;;;;;11.17;8.93;;;3.80;99.90;;;;;;5037773;28;20177;-70
2022/02/26 00:28:28;;;;;;;22.03;9.10;;;3.90;99.90;;;;;;5030432;28;20199;-68
2022/02/26 00:30:54;;;;;;;14.30;8.70;;;3.80;99.90;;;;;;5032738;28;20770;-69
2022/02/26 00:33:19;;;;;;;21.00;9.87;;;3.60;99.90;;;;;;5040294;28;20183;-68
2022/02/26 00:35:45;;;;;;;12.30;9.87;;;3.50;99.90;;;;;;5053251;28;20172;-70
2022/02/26 00:38:11;;;;;;;17.80;10.00;;;3.50;99.90;;;;;;5059426;28;20198;-69
2022/02/26 00:40:36;;;;;;;13.83;9.20;;;3.50;99.90;;;;;;5072620;28;20173;-69
2022/02/26 00:43:03;;;;;;;14.60;10.53;;;3.40;99.90;;;;;;5088141;22;20215;-70
2022/02/26 00:45:29;;;;;;;18.97;9.83;;;3.50;99.90;;;;;;5065605;28;20195;-70
2022/02/26 00:47:54;;;;;;;15.40;9.37;;;3.60;99.90;;;;;;5057126;28;21115;-70
2022/02/26 00:50:20;;;;;;;19.37;9.10;;;3.70;99.90;;;;;;5075451;28;20412;-70
2022/02/26 00:52:46;;;;;;;19.73;9.70;;;3.80;99.90;;;;;;5074642;28;20175;-70
2022/02/26 00:55:12;;;;;;;16.23;9.90;;;3.80;99.90;;;;;;5055592;28;20604;-70
2022/02/26 00:57:38;;;;;;;19.73;10.57;;;3.90;99.90;;;;;;5055000;28;20265;-71
2022/02/26 01:00:09;;;;;;;16.70;9.40;;;3.90;99.90;;;;;;5056846;28;20836;-70
2022/02/26 01:02:35;;;;;;;17.57;9.47;;;3.80;99.90;;;;;;5055030;28;20208;-71
2022/02/26 01:05:01;;;;;;;12.67;9.43;;;3.90;99.90;;;;;;5054982;28;20441;-69
2022/02/26 01:07:27;;;;;;;16.97;9.60;;;3.90;99.90;;;;;;5054653;28;20303;-69
2022/02/26 01:09:52;;;;;;;17.60;10.07;;;4.00;99.90;;;;;;5056266;28;20462;-69
2022/02/26 01:12:18;;;;;;;16.63;9.77;;;4.10;99.90;;;;;;5054672;28;20176;-70
2022/02/26 01:14:44;;;;;;;13.60;9.67;;;4.00;99.90;;;;;;5054665;28;20204;-70
2022/02/26 01:17:11;;;;;;;16.93;9.90;;;4.10;99.90;;;;;;5055105;28;20414;-70
2022/02/26 01:19:38;;;;;;;20.13;10.27;;;4.10;99.90;;;;;;5055468;28;20187;-70
2022/02/26 01:22:05;;;;;;;15.70;9.97;;;4.00;99.90;;;;;;5055780;28;20463;-70
2022/02/26 01:24:31;;;;;;;16.00;10.93;;;4.00;99.90;;;;;;5055287;28;20436;-70
2022/02/26 01:26:56;;;;;;;21.90;10.87;;;4.10;99.90;;;;;;5058010;28;20404;-70
2022/02/26 01:29:22;;;;;;;14.33;10.60;;;4.10;99.90;;;;;;5059666;28;20408;-70
2022/02/26 01:31:47;;;;;;;22.70;10.80;;;4.20;99.90;;;;;;5060112;28;20213;-70
2022/02/26 01:34:13;;;;;;;18.40;10.90;;;4.20;99.90;;;;;;5059233;28;20211;-70
2022/02/26 01:36:39;;;;;;;22.23;12.33;;;4.30;99.90;;;;;;5060983;28;20187;-70
2022/02/26 01:39:07;;;;;;;21.03;13.90;;;4.30;99.90;;;;;;5065885;28;20174;-70
2022/02/26 01:41:32;;;;;;;25.80;12.70;;;4.30;99.90;;;;;;5070114;28;20209;-70
2022/02/26 01:43:58;;;;;;;19.87;13.97;;;4.40;99.90;;;;;;5083713;28;20459;-70
2022/02/26 01:46:24;;;;;;;28.07;14.63;;;4.40;99.90;;;;;;5083915;28;20181;-70
2022/02/26 01:48:50;;;;;;;22.17;12.90;;;4.40;99.90;;;;;;5067181;28;20424;-71
2022/02/26 01:51:17;;;;;;;25.40;14.17;;;4.50;99.90;;;;;;5096358;28;20202;-69
2022/02/26 01:53:42;;;;;;;28.43;15.13;;;4.30;99.90;;;;;;5080839;28;20469;-70
2022/02/26 01:56:09;;;;;;;23.93;14.13;;;4.40;99.90;;;;;;5077085;28;20417;-68
2022/02/26 01:58:35;;;;;;;26.50;15.63;;;4.40;99.90;;;;;;5078890;28;20199;-70
2022/02/26 02:01:02;;;;;;;25.30;14.87;;;4.50;99.90;;;;;;5080762;28;20407;-66
2022/02/26 02:03:27;;;;;;;33.73;15.83;;;4.40;99.90;;;;;;5076402;28;20445;-70
2022/02/26 02:05:57;;;;;;;19.30;15.07;;;4.40;99.90;;;;;;5075264;28;20434;-70
2022/02/26 02:08:24;;;;;;;27.90;15.50;;;4.50;99.90;;;;;;5071457;28;20198;-70
2022/02/26 02:10:51;;;;;;;22.57;14.80;;;4.40;99.90;;;;;;5072032;28;20430;-70
2022/02/26 02:13:18;;;;;;;24.60;15.47;;;4.40;99.90;;;;;;5059247;28;20449;-70
2022/02/26 02:15:43;;;;;;;23.63;16.30;;;4.50;99.90;;;;;;5078978;28;20413;-70
2022/02/26 02:18:11;;;;;;;23.50;15.60;;;4.60;99.90;;;;;;5079272;28;20496;-70
2022/02/26 02:20:39;;;;;;;28.33;15.50;;;4.50;99.90;;;;;;5061268;28;20462;-69
2022/02/26 02:23:05;;;;;;;31.17;16.50;;;4.50;99.90;;;;;;5077639;28;20955;-70
2022/02/26 02:25:33;;;;;;;28.47;16.17;;;4.50;99.90;;;;;;5077255;28;20459;-70
2022/02/26 02:27:59;;;;;;;25.50;15.93;;;4.50;99.90;;;;;;5079055;28;20182;-70
2022/02/26 02:30:27;;;;;;;29.77;17.13;;;4.30;99.90;;;;;;5078965;28;20431;-70
2022/02/26 02:32:54;;;;;;;28.47;15.97;;;4.30;99.90;;;;;;5077787;28;20505;-70
2022/02/26 02:35:32;;;;;;;25.53;14.70;;;4.40;99.90;;;;;;5076361;28;20448;-70
2022/02/26 02:38:02;;;;;;;30.60;17.67;;;4.40;99.90;;;;;;5073150;28;20441;-70
2022/02/26 02:40:28;;;;;;;27.73;16.27;;;4.40;99.90;;;;;;5059219;28;20976;-71
2022/02/26 02:42:54;;;;;;;20.23;14.10;;;4.50;99.90;;;;;;5058689;28;20464;-70
2022/02/26 02:45:20;;;;;;;29.70;15.77;;;4.50;99.90;;;;;;5059745;28;20410;-70
2022/02/26 02:47:47;;;;;;;23.33;14.73;;;4.40;99.90;;;;;;5060355;28;20540;-70
2022/02/26 02:50:12;;;;;;;26.07;16.00;;;4.30;99.90;;;;;;5060224;28;20550;-71
2022/02/26 02:52:38;;;;;;;25.97;15.87;;;4.20;99.90;;;;;;5060636;28;20444;-70
2022/02/26 02:55:06;;;;;;;25.40;16.30;;;4.30;99.90;;;;;;5065614;28;20186;-68
2022/02/26 02:57:31;;;;;;;25.53;15.93;;;4.30;99.90;;;;;;5079036;28;20181;-68
2022/02/26 02:59:57;;;;;;;29.07;16.37;;;4.40;99.90;;;;;;5090473;28;20436;-69
2022/02/26 03:02:22;;;;;;;25.80;15.80;;;4.50;99.90;;;;;;5099021;28;20216;-68
2022/02/26 03:04:48;;;;;;;37.80;18.30;;;4.60;99.90;;;;;;5099778;28;20225;-66
2022/02/26 03:07:13;;;;;;;26.60;16.57;;;4.60;99.90;;;;;;5087681;28;20179;-71
2022/02/26 03:09:39;;;;;;;31.53;17.50;;;4.70;99.90;;;;;;5075814;28;20204;-70
2022/02/26 03:12:05;;;;;;;36.37;17.50;;;4.70;99.90;;;;;;5077432;28;20261;-70
2022/02/26 03:14:30;;;;;;;26.80;17.33;;;4.70;99.90;;;;;;5076733;28;20198;-70
2022/02/26 03:16:56;;;;;;;31.73;18.07;;;4.70;99.90;;;;;;5076744;28;20420;-70
2022/02/26 03:19:22;;;;;;;24.90;16.30;;;4.60;99.90;;;;;;5076926;28;20213;-70
2022/02/26 03:21:47;;;;;;;23.33;17.03;;;4.70;99.90;;;;;;5074952;28;20217;-70
2022/02/26 03:24:13;;;;;;;30.93;17.83;;;4.80;99.90;;;;;;5076818;28;20490;-69
2022/02/26 03:26:39;;;;;;;32.10;16.70;;;4.70;99.90;;;;;;5077560;28;20215;-70
2022/02/26 03:29:09;;;;;;;23.03;15.67;;;4.70;99.90;;;;;;5076869;28;20247;-70
2022/02/26 03:31:35;;;;;;;28.20;17.93;;;4.80;99.90;;;;;;5074791;28;20421;-70
2022/02/26 03:34:01;;;;;;;30.87;18.03;;;4.80;99.90;;;;;;5075754;28;20444;-70
2022/02/26 03:36:34;;;;;;;26.77;16.83;;;4.80;99.90;;;;;;5081173;28;20446;-70
2022/02/26 03:39:00;;;;;;;31.17;17.90;;;4.80;99.90;;;;;;5061377;28;20553;-70
2022/02/26 03:41:25;;;;;;;30.67;18.27;;;4.90;99.90;;;;;;5075731;28;20550;-69
2022/02/26 03:43:51;;;;;;;32.53;19.40;;;4.80;99.90;;;;;;5076795;28;20968;-71
2022/02/26 03:46:17;;;;;;;32.67;18.27;;;4.80;99.90;;;;;;5076440;28;20174;-70
2022/02/26 03:48:42;;;;;;;31.63;18.20;;;4.80;99.90;;;;;;5075051;28;20261;-70
2022/02/26 03:51:10;;;;;;;33.20;18.80;;;4.80;99.90;;;;;;5076386;28;20619;-70
2022/02/26 03:53:36;;;;;;;34.87;19.67;;;4.80;99.90;;;;;;5074325;28;20539;-70
2022/02/26 03:56:02;;;;;;;41.50;21.97;;;4.80;99.90;;;;;;5058148;28;20907;-70
2022/02/26 03:58:27;;;;;;;40.37;20.70;;;4.60;99.90;;;;;;5076460;28;20484;-71
2022/02/26 04:00:53;;;;;;;43.10;23.37;;;4.30;99.90;;;;;;5075555;28;20686;-70
2022/02/26 04:03:18;;;;;;;44.70;25.20;;;4.10;99.90;;;;;;5055976;28;20216;-69
2022/02/26 04:05:44;;;;;;;43.47;24.77;;;3.80;99.90;;;;;;5075418;28;20264;-70
2022/02/26 04:08:09;;;;;;;42.53;23.50;;;3.60;99.90;;;;;;5075232;28;20200;-70
2022/02/26 04:10:35;;;;;;;43.73;24.10;;;3.50;99.90;;;;;;5056849;28;20269;-70
2022/02/26 04:13:00;;;;;;;42.97;24.47;;;3.30;99.90;;;;;;5073930;28;20175;-70
2022/02/26 04:15:26;;;;;;;51.20;25.03;;;3.30;99.90;;;;;;5075572;28;20212;-71
2022/02/26 04:17:51;;;;;;;50.40;26.07;;;3.30;99.90;;;;;;5058860;28;20526;-70
2022/02/26 04:20:17;;;;;;;49.43;26.90;;;3.30;99.90;;;;;;5076515;28;20194;-70
2022/02/26 04:22:42;;;;;;;54.93;28.27;;;3.50;99.90;;;;;;5075738;28;20203;-70
2022/02/26 04:25:08;;;;;;;52.07;27.00;;;3.70;99.90;;;;;;5074804;28;20712;-71
2022/02/26 04:27:34;;;;;;;52.50;26.90;;;3.80;99.90;;;;;;5076963;28;20650;-71
2022/02/26 04:30:00;;;;;;;69.43;35.70;;;3.80;99.90;;;;;;5076596;28;20463;-70
2022/02/26 04:32:26;;;;;;;51.40;29.63;;;3.80;99.90;;;;;;5076234;28;20414;-70
2022/02/26 04:34:51;;;;;;;46.70;27.90;;;3.70;99.90;;;;;;5075347;28;20460;-70
2022/02/26 04:37:20;;;;;;;47.77;26.30;;;3.80;99.90;;;;;;5076464;28;20186;-70
2022/02/26 04:39:50;;;;;;;56.30;27.80;;;3.90;99.90;;;;;;5019077;28;20185;-71
2022/02/26 04:42:16;;;;;;;47.20;26.77;;;4.00;99.90;;;;;;5019339;28;20498;-70
2022/02/26 04:44:41;;;;;;;54.13;25.73;;;4.10;99.90;;;;;;5041725;28;20456;-70
2022/02/26 04:47:07;;;;;;;45.43;25.47;;;4.20;99.90;;;;;;5052194;28;20477;-71
2022/02/26 04:49:33;;;;;;;50.00;26.30;;;4.20;99.90;;;;;;5080354;28;20185;-70
2022/02/26 04:51:58;;;;;;;41.93;25.50;;;4.20;99.90;;;;;;5090574;28;20597;-71
2022/02/26 04:54:23;;;;;;;44.80;25.07;;;4.20;99.90;;;;;;5086034;28;20222;-71
2022/02/26 04:56:49;;;;;;;47.37;26.10;;;4.20;99.90;;;;;;5083631;28;20196;-71
2022/02/26 04:59:15;;;;;;;44.37;23.80;;;4.00;99.90;;;;;;5076556;28;20205;-70
2022/02/26 05:01:40;;;;;;;43.67;24.40;;;4.10;99.90;;;;;;5075435;28;20204;-70
2022/02/26 05:04:06;;;;;;;47.97;24.33;;;4.10;99.90;;;;;;5075312;28;20441;-70
2022/02/26 05:06:32;;;;;;;40.07;24.43;;;4.10;99.90;;;;;;5075236;28;20188;-71
2022/02/26 05:08:57;;;;;;;44.20;24.57;;;4.20;99.90;;;;;;5075879;28;20244;-71
2022/02/26 05:11:22;;;;;;;36.77;21.90;;;4.20;99.90;;;;;;5074011;28;20579;-70
2022/02/26 05:13:48;;;;;;;43.50;23.13;;;4.20;99.90;;;;;;5074344;28;20739;-71
2022/02/26 05:16:14;;;;;;;43.80;23.17;;;4.30;99.90;;;;;;5075620;28;20187;-70
2022/02/26 05:18:40;;;;;;;39.93;22.33;;;4.30;99.90;;;;;;5075483;28;20593;-70
2022/02/26 05:21:05;;;;;;;41.23;20.20;;;4.40;99.90;;;;;;5073366;28;20186;-70
2022/02/26 05:23:31;;;;;;;36.07;21.93;;;4.30;99.90;;;;;;5074623;28;20428;-69
2022/02/26 05:25:56;;;;;;;33.37;19.80;;;4.40;99.90;;;;;;5075463;28;20191;-69
2022/02/26 05:28:22;;;;;;;36.43;21.33;;;4.40;99.90;;;;;;5074831;28;20588;-69
2022/02/26 05:30:48;;;;;;;46.23;22.10;;;4.30;99.90;;;;;;5073118;28;20198;-69
2022/02/26 05:33:13;;;;;;;41.00;22.33;;;4.30;99.90;;;;;;5075119;28;20614;-70
2022/02/26 05:35:39;;;;;;;40.30;21.50;;;4.30;99.90;;;;;;5074730;28;20193;-69
2022/02/26 05:38:04;;;;;;;37.80;20.47;;;4.20;99.90;;;;;;5075996;28;20173;-69
2022/02/26 05:40:30;;;;;;;36.47;21.97;;;4.20;99.90;;;;;;5075341;28;20547;-69
2022/02/26 05:42:55;;;;;;;45.33;22.57;;;4.20;99.90;;;;;;5073653;28;20568;-71
2022/02/26 05:45:21;;;;;;;45.80;23.30;;;4.20;99.90;;;;;;5076393;28;20181;-71
2022/02/26 05:47:46;;;;;;;39.80;22.23;;;4.10;99.90;;;;;;5076516;28;20214;-71
2022/02/26 05:50:13;;;;;;;48.73;23.90;;;4.10;99.90;;;;;;5076321;28;20178;-71
2022/02/26 05:52:38;;;;;;;44.87;24.00;;;4.10;99.90;;;;;;5066744;28;20774;-71
2022/02/26 05:55:05;;;;;;;40.67;23.57;;;4.10;99.90;;;;;;5056686;28;20444;-71
2022/02/26 05:57:30;;;;;;;45.00;22.93;;;3.90;99.90;;;;;;5056561;28;20267;-71
2022/02/26 05:59:56;;;;;;;47.97;24.97;;;3.60;99.90;;;;;;5056891;28;20450;-72
2022/02/26 06:02:22;;;;;;;51.63;24.23;;;3.60;99.90;;;;;;5076886;28;20218;-70
2022/02/26 06:04:47;;;;;;;56.87;24.13;;;3.70;99.90;;;;;;5076296;28;20449;-70
2022/02/26 06:07:13;;;;;;;39.30;21.87;;;3.70;99.90;;;;;;5076849;28;20183;-71
2022/02/26 06:09:38;;;;;;;52.60;25.13;;;3.80;99.90;;;;;;5074935;28;20196;-70
2022/02/26 06:12:04;;;;;;;55.23;23.53;;;3.80;99.90;;;;;;5065041;28;20225;-69
2022/02/26 06:14:30;;;;;;;49.10;23.87;;;3.80;99.90;;;;;;5059016;28;20213;-71
2022/02/26 06:16:56;;;;;;;48.67;23.87;;;3.90;99.90;;;;;;5058403;28;20974;-70
2022/02/26 06:19:21;;;;;;;46.37;22.30;;;3.90;99.90;;;;;;5058634;28;20192;-70
2022/02/26 06:21:48;;;;;;;44.83;23.90;;;3.90;99.90;;;;;;5058032;28;20214;-71
2022/02/26 06:24:14;;;;;;;45.10;22.93;;;3.70;99.90;;;;;;5041703;28;20225;-70
2022/02/26 06:26:40;;;;;;;39.83;20.90;;;3.70;99.90;;;;;;5058702;28;20429;-70
2022/02/26 06:29:05;;;;;;;40.23;21.30;;;3.80;99.90;;;;;;5057664;28;20779;-69
2022/02/26 06:31:31;;;;;;;39.07;21.70;;;3.80;99.90;;;;;;5057211;28;20184;-70
2022/02/26 06:33:56;;;;;;;37.13;22.07;;;3.70;99.90;;;;;;5057147;28;20292;-71
2022/02/26 06:36:22;;;;;;;45.40;22.33;;;3.70;99.90;;;;;;5059074;28;20202;-70
2022/02/26 06:38:47;;;;;;;43.43;23.17;;;3.80;99.90;;;;;;5069571;28;20185;-69
2022/02/26 06:41:13;;;;;;;39.80;21.37;;;3.80;99.90;;;;;;5078544;28;20178;-71
2022/02/26 06:43:39;;;;;;;41.50;20.20;;;3.90;99.90;;;;;;5096299;22;20229;-68
2022/02/26 06:46:08;;;;;;;37.40;20.27;;;3.90;99.90;;;;;;5043187;28;20191;-68
2022/02/26 06:48:34;;;;;;;38.37;19.10;;;3.90;99.90;;;;;;5054520;28;20422;-67
2022/02/26 06:51:00;;;;;;;38.70;20.20;;;3.90;99.90;;;;;;5054864;28;20410;-68
2022/02/26 06:53:25;;;;;;;36.37;20.33;;;4.00;99.90;;;;;;5054609;28;20710;-69
2022/02/26 06:55:51;;;;;;;47.10;22.80;;;4.00;99.90;;;;;;5054777;28;20194;-69
2022/02/26 06:58:16;;;;;;;49.57;19.87;;;3.90;99.90;;;;;;5054347;28;20240;-68
2022/02/26 07:00:42;;;;;;;39.57;22.50;;;3.80;99.90;;;;;;5054647;28;20183;-68
2022/02/26 07:03:07;;;;;;;40.60;20.20;;;3.70;99.90;;;;;;5054140;28;20219;-68
2022/02/26 07:05:33;;;;;;;38.70;21.20;;;3.70;99.90;;;;;;5036511;28;20609;-69
2022/02/26 07:07:58;;;;;;;44.97;23.50;;;3.80;99.90;;;;;;5054640;28;20594;-68
2022/02/26 07:10:24;;;;;;;48.53;21.20;;;3.90;99.90;;;;;;5054405;28;20185;-68
2022/02/26 07:12:49;;;;;;;39.00;21.60;;;3.90;99.90;;;;;;5053888;28;20214;-68
2022/02/26 07:15:15;;;;;;;40.00;21.83;;;4.00;99.90;;;;;;5054293;28;20217;-68
2022/02/26 07:17:40;;;;;;;46.50;22.73;;;4.10;99.90;;;;;;5054509;28;20191;-69
2022/02/26 07:20:07;;;;;;;41.50;22.07;;;4.20;99.90;;;;;;5054178;28;20186;-68
2022/02/26 07:22:33;;;;;;;43.83;22.27;;;4.20;99.90;;;;;;5054835;28;20216;-67
2022/02/26 07:24:58;;;;;;;43.47;21.90;;;4.30;99.90;;;;;;5054376;28;20868;-70
2022/02/26 07:27:24;;;;;;;35.40;19.53;;;4.30;99.90;;;;;;5054445;28;20187;-68
2022/02/26 07:29:49;;;;;;;39.87;21.00;;;4.10;99.90;;;;;;5053661;28;20167;-67
2022/02/26 07:32:15;;;;;;;38.53;20.53;;;4.00;99.90;;;;;;5053452;28;20659;-68
2022/02/26 07:34:40;;;;;;;37.17;20.53;;;4.00;99.90;;;;;;5054256;28;20204;-67
2022/02/26 07:37:06;;;;;;;37.10;19.83;;;4.10;99.90;;;;;;5053982;28;20671;-68
2022/02/26 07:39:31;;;;;;;39.03;20.57;;;4.20;99.90;;;;;;5053776;28;20211;-67
2022/02/26 07:41:57;;;;;;;42.83;20.30;;;4.30;99.90;;;;;;5053598;28;20247;-69
2022/02/26 07:44:23;;;;;;;37.60;19.23;;;4.40;99.90;;;;;;5036047;28;20220;-67
2022/02/26 07:46:48;;;;;;;40.27;20.60;;;4.40;99.90;;;;;;5054097;28;20567;-67
2022/02/26 07:49:14;;;;;;;38.13;19.23;;;4.40;99.90;;;;;;5053573;28;20686;-66
2022/02/26 07:51:39;;;;;;;33.97;18.83;;;4.50;99.90;;;;;;5053694;28;20686;-67
2022/02/26 07:54:05;;;;;;;35.43;17.50;;;4.50;99.90;;;;;;5034115;28;20224;-68
2022/02/26 07:56:30;;;;;;;36.53;17.27;;;4.60;99.90;;;;;;5054001;28;20187;-68
2022/02/26 07:58:56;;;;;;;38.87;18.80;;;4.60;99.90;;;;;;5053764;28;20186;-68
2022/02/26 08:01:22;;;;;;;37.97;18.33;;;4.60;99.90;;;;;;5053810;28;20256;-69
2022/02/26 08:03:48;;;;;;;35.67;18.43;;;4.70;99.90;;;;;;5052496;28;20207;-69
2022/02/26 08:06:13;;;;;;;34.70;19.43;;;4.70;99.90;;;;;;5053741;28;20411;-68
2022/02/26 08:08:39;;;;;;;36.90;19.53;;;4.80;99.90;;;;;;5053526;28;20418;-68
2022/02/26 08:11:04;;;;;;;34.47;19.70;;;4.70;99.90;;;;;;5053888;28;20205;-67
2022/02/26 08:13:30;;;;;;;38.67;19.87;;;4.70;99.90;;;;;;5052587;28;20551;-68
2022/02/26 08:15:56;;;;;;;38.30;19.73;;;4.70;99.90;;;;;;5035353;28;20550;-69
2022/02/26 08:18:21;;;;;;;32.83;17.10;;;4.70;99.90;;;;;;5053248;28;20314;-67
2022/02/26 08:20:47;;;;;;;40.50;19.70;;;4.80;99.90;;;;;;5053503;28;20182;-68
2022/02/26 08:23:12;;;;;;;35.70;20.27;;;4.60;99.90;;;;;;5034935;28;20211;-67
2022/02/26 08:25:38;;;;;;;36.43;17.83;;;4.60;99.90;;;;;;5034977;28;20209;-70
2022/02/26 08:28:04;;;;;;;34.40;16.80;;;4.70;99.90;;;;;;5053280;28;20187;-68
2022/02/26 08:30:30;;;;;;;25.27;16.30;;;4.70;99.90;;;;;;5053339;28;20415;-68
2022/02/26 08:32:56;;;;;;;28.93;16.00;;;4.80;99.90;;;;;;5053201;28;20855;-69
2022/02/26 08:35:22;;;;;;;34.37;16.90;;;4.90;99.90;;;;;;5052127;28;20211;-68
2022/02/26 08:37:47;;;;;;;30.60;15.30;;;5.00;99.90;;;;;;5052538;28;20426;-68
2022/02/26 08:40:15;;;;;;;37.97;16.03;;;5.00;99.90;;;;;;5056525;28;20184;-69
2022/02/26 08:42:41;;;;;;;28.40;15.60;;;5.10;99.90;;;;;;5054549;28;20199;-68
2022/02/26 08:45:07;;;;;;;28.50;15.73;;;5.10;99.90;;;;;;5053449;28;20826;-67
2022/02/26 08:47:33;;;;;;;29.00;15.80;;;5.10;99.90;;;;;;5053982;28;20411;-67
2022/02/26 08:50:00;;;;;;;31.37;18.07;;;5.10;99.90;;;;;;5052393;28;20430;-69
2022/02/26 08:52:26;;;;;;;34.40;17.03;;;5.20;99.90;;;;;;5051923;28;20425;-67
2022/02/26 08:54:52;;;;;;;32.83;16.23;;;5.20;99.90;;;;;;5053288;28;20454;-68
2022/02/26 08:57:18;;;;;;;31.03;16.97;;;5.20;99.90;;;;;;5052856;28;20182;-68
2022/02/26 08:59:44;;;;;;;36.13;16.07;;;4.80;99.90;;;;;;5051765;28;20226;-68
2022/02/26 09:02:09;;;;;;;31.70;15.83;;;4.60;99.90;;;;;;5051623;28;20477;-66
2022/02/26 09:04:36;;;;;;;33.63;16.30;;;4.40;99.90;;;;;;5053227;28;20724;-67
2022/02/26 09:07:03;;;;;;;30.57;16.17;;;4.40;99.90;;;;;;5049397;28;20315;-68
2022/02/26 09:09:29;;;;;;;27.30;15.40;;;4.60;99.90;;;;;;5041570;28;20488;-67
2022/02/26 09:11:55;;;;;;;34.57;17.10;;;4.70;99.90;;;;;;5050795;28;20501;-69
2022/02/26 09:14:20;;;;;;;30.17;17.30;;;4.70;99.90;;;;;;5053516;28;20450;-68
2022/02/26 09:16:46;;;;;;;35.20;17.53;;;4.70;99.90;;;;;;5042035;28;20515;-67
2022/02/26 09:19:12;;;;;;;32.70;17.93;;;4.70;99.90;;;;;;5053322;28;20286;-69
2022/02/26 09:21:37;;;;;;;35.00;19.43;;;4.80;99.90;;;;;;5051858;28;20246;-70
2022/02/26 09:24:03;;;;;;;38.40;17.87;;;5.00;99.90;;;;;;5052967;28;20434;-68
2022/02/26 09:26:29;;;;;;;30.03;17.10;;;5.30;99.90;;;;;;5031848;28;20242;-69
2022/02/26 09:28:54;;;;;;;32.67;16.93;;;5.50;99.90;;;;;;5052465;28;20458;-69
2022/02/26 09:31:20;;;;;;;37.93;21.63;;;5.80;99.90;;;;;;5052212;28;20199;-69
2022/02/26 09:33:46;;;;;;;35.37;19.57;;;6.00;99.90;;;;;;5052667;28;20208;-69
2022/02/26 09:36:12;;;;;;;34.17;18.97;;;6.20;99.90;;;;;;5052956;28;20176;-69
2022/02/26 09:38:39;;;;;;;35.17;19.77;;;6.00;99.90;;;;;;5052842;28;20188;-69
2022/02/26 09:41:05;;;;;;;29.40;17.60;;;6.10;99.90;;;;;;5053202;28;20180;-67
2022/02/26 09:43:31;;;;;;;29.63;16.73;;;6.10;99.90;;;;;;5051959;28;20476;-69
2022/02/26 09:45:58;;;;;;;28.47;16.40;;;6.20;99.90;;;;;;5052861;28;20411;-69
2022/02/26 09:48:25;;;;;;;28.57;16.30;;;6.30;99.90;;;;;;5055487;28;20422;-69
2022/02/26 09:50:51;;;;;;;23.13;13.33;;;6.30;99.90;;;;;;5055455;28;20525;-70
2022/02/26 09:53:18;;;;;;;23.80;14.43;;;6.40;99.90;;;;;;5054211;28;20521;-69
2022/02/26 09:55:44;;;;;;;23.40;13.83;;;6.50;99.90;;;;;;5056087;28;21125;-68
2022/02/26 09:58:10;;;;;;;26.80;14.47;;;6.60;99.90;;;;;;5055585;28;20422;-68
2022/02/26 10:00:36;;;;;;;22.60;13.57;;;6.70;99.90;;;;;;5058137;28;20430;-70
2022/02/26 10:03:04;;;;;;;23.47;14.63;;;6.80;99.90;;;;;;5056234;28;20978;-69
2022/02/26 10:05:30;;;;;;;22.87;13.30;;;6.80;99.90;;;;;;5056881;28;20196;-67
2022/02/26 10:07:56;;;;;;;25.40;13.50;;;6.70;99.90;;;;;;5055420;28;20444;-69
2022/02/26 10:10:28;;;;;;;22.77;13.83;;;6.60;99.90;;;;;;5056528;28;20423;-68
2022/02/26 10:12:56;;;;;;;20.50;11.53;;;6.70;99.90;;;;;;5055548;28;20558;-67
2022/02/26 10:15:40;;;;;;;19.17;12.30;;;6.90;99.90;;;;;;5056408;28;20451;-68
2022/02/26 10:18:11;;;;;;;19.80;12.57;;;6.70;99.90;;;;;;5056449;28;20434;-69
2022/02/26 10:20:49;;;;;;;23.73;12.90;;;6.80;99.90;;;;;;5056203;28;20469;-68
2022/02/26 10:23:16;;;;;;;20.97;12.63;;;6.80;99.90;;;;;;5038344;28;20502;-68
2022/02/26 10:25:42;;;;;;;22.00;13.50;;;6.90;99.90;;;;;;5038168;28;20541;-70
2022/02/26 10:28:11;;;;;;;23.63;12.73;;;6.90;99.90;;;;;;5056426;28;20507;-69
2022/02/26 10:30:40;;;;;;;22.50;13.60;;;7.00;99.90;;;;;;5056115;28;20943;-69
2022/02/26 10:33:17;;;;;;;21.07;11.77;;;7.10;99.90;;;;;;5056028;28;20423;-67
2022/02/26 10:35:48;;;;;;;20.80;12.47;;;7.20;99.90;;;;;;5055998;28;20455;-69
2022/02/26 10:38:28;;;;;;;24.83;12.43;;;7.20;99.90;;;;;;5037868;28;20433;-68
2022/02/26 10:40:55;;;;;;;16.90;11.67;;;7.30;99.90;;;;;;5023929;28;20505;-69
2022/02/26 10:43:44;;;;;;;20.90;12.03;;;7.40;99.90;;;;;;5050832;28;20476;-68
2022/02/26 10:46:30;;;;;;;21.40;11.60;;;7.40;99.90;;;;;;5037404;28;20504;-69
2022/02/26 10:49:00;;;;;;;21.40;12.10;;;7.50;99.90;;;;;;5055186;28;20431;-69
2022/02/26 10:51:32;;;;;;;23.60;13.87;;;7.60;99.90;;;;;;5056092;28;20554;-69
2022/02/26 10:54:02;;;;;;;20.70;12.47;;;7.70;99.90;;;;;;5054868;28;20494;-70
2022/02/26 10:56:38;;;;;;;19.83;12.27;;;7.70;99.90;;;;;;5055803;28;20400;-68
2022/02/26 10:59:05;;;;;;;19.47;13.20;;;7.70;99.90;;;;;;5054547;28;20947;-69
2022/02/26 11:01:32;;;;;;;19.10;12.20;;;7.80;99.90;;;;;;5055376;28;20441;-69
2022/02/26 11:03:58;;;;;;;17.07;11.37;;;7.90;99.90;;;;;;5055110;28;20427;-67
2022/02/26 11:06:25;;;;;;;20.47;12.67;;;7.90;99.90;;;;;;5055308;28;20399;-70
2022/02/26 11:08:51;;;;;;;17.57;12.43;;;7.90;99.90;;;;;;5054941;28;20432;-69
2022/02/26 11:11:19;;;;;;;17.43;10.90;;;7.90;99.90;;;;;;5054248;28;20419;-69
2022/02/26 11:13:48;;;;;;;18.90;11.90;;;8.00;99.90;;;;;;5053884;28;20423;-69
2022/02/26 11:16:14;;;;;;;27.60;14.20;;;8.00;99.90;;;;;;5054400;28;20914;-68
2022/02/26 11:18:45;;;;;;;17.30;11.90;;;7.80;99.90;;;;;;5053992;28;20405;-69
2022/02/26 11:21:14;;;;;;;14.20;10.90;;;7.80;99.90;;;;;;5053184;28;20451;-69
2022/02/26 11:23:40;;;;;;;17.60;10.87;;;7.70;99.90;;;;;;5053019;28;20425;-69
2022/02/26 11:26:07;;;;;;;16.63;11.67;;;7.50;99.90;;;;;;5053376;28;20412;-69
2022/02/26 11:28:42;;;;;;;21.20;11.97;;;7.50;99.90;;;;;;5053906;28;20451;-68
2022/02/26 11:31:14;;;;;;;17.70;11.57;;;7.50;99.90;;;;;;5054372;28;20451;-67
2022/02/26 11:33:44;;;;;;;20.43;12.40;;;7.60;99.90;;;;;;5051926;28;20509;-68
2022/02/26 11:36:09;;;;;;;19.53;11.97;;;7.70;99.90;;;;;;5054349;28;20835;-67
2022/02/26 11:38:39;;;;;;;16.90;11.30;;;7.80;99.90;;;;;;5053968;28;20501;-69
2022/02/26 11:41:22;;;;;;;18.00;10.90;;;7.70;99.90;;;;;;5053755;28;20216;-69
2022/02/26 11:43:52;;;;;;;21.83;11.80;;;7.70;99.90;;;;;;5053259;28;20467;-68
2022/02/26 11:46:34;;;;;;;22.63;12.00;;;7.80;99.90;;;;;;5053315;28;20467;-72
2022/02/26 11:49:15;;;;;;;18.13;9.93;;;7.90;99.90;;;;;;5035623;28;20928;-69
2022/02/26 11:51:43;;;;;;;24.77;11.77;;;8.00;99.90;;;;;;5053166;28;20423;-67
2022/02/26 11:54:17;;;;;;;20.23;12.10;;;8.10;99.90;;;;;;5049645;28;20457;-69
2022/02/26 11:56:57;;;;;;;17.50;11.43;;;8.30;99.90;;;;;;5051160;28;20950;-68
2022/02/26 11:59:41;;;;;;;18.73;11.10;;;8.30;99.90;;;;;;5037599;28;20453;-68
2022/02/26 12:02:12;;;;;;;14.60;10.20;;;8.40;99.90;;;;;;5049941;28;20465;-70
2022/02/26 12:04:56;;;;;;;18.80;10.73;;;8.50;99.90;;;;;;5052739;28;20874;-69
2022/02/26 12:07:48;;;;;;;18.13;10.43;;;8.50;99.90;;;;;;5052173;28;20532;-69
2022/02/26 12:10:14;;;;;;;17.87;10.73;;;8.60;99.90;;;;;;5047803;28;20493;-69
2022/02/26 12:12:44;;;;;;;16.27;9.67;;;8.60;99.90;;;;;;5052902;28;20440;-70
2022/02/26 12:15:19;;;;;;;14.03;7.27;;;8.60;99.90;;;;;;5051504;28;20456;-68
2022/02/26 12:17:54;;;;;;;15.13;7.43;;;8.60;99.90;;;;;;5051852;28;20832;-68
2022/02/26 12:20:22;;;;;;;14.53;6.00;;;8.70;99.90;;;;;;5052350;28;21028;-69
2022/02/26 12:22:49;;;;;;;13.83;5.20;;;8.70;99.90;;;;;;5052776;28;20562;-68
2022/02/26 12:25:17;;;;;;;11.03;4.40;;;8.60;99.90;;;;;;5053045;28;20440;-68
2022/02/26 12:27:55;;;;;;;12.73;5.80;;;8.60;99.90;;;;;;5051687;28;20420;-68
2022/02/26 12:30:20;;;;;;;5.83;4.90;;;8.60;99.90;;;;;;5051943;28;21021;-69
2022/02/26 12:32:54;;;;;;;7.63;4.40;;;8.60;99.90;;;;;;5052800;28;20512;-70
2022/02/26 12:35:24;;;;;;;13.00;4.27;;;8.50;99.90;;;;;;5052494;28;20206;-67
2022/02/26 12:37:50;;;;;;;10.87;4.27;;;8.50;99.90;;;;;;5051969;28;20428;-69